METAR Data
IDs: Format: Raw Decoded Include TAF

Data at: 2131 UTC 26 Feb 2020

PTTP 262053Z 11004KT 15SM SCT018TCU BKN130 OVC300 28/25 A2983 RMK TCU ALQDS SLP100 8/271 T02780248 52012